sensor_id;sensor_type;location;lat;lon;timestamp;P1;durP1;ratioP1;P2;durP2;ratioP2
20399;SDS011;10359;53.596;22.520;2023-06-14T00:00:44;6.00;;;4.97;;
20399;SDS011;10359;53.596;22.520;2023-06-14T00:03:17;5.50;;;4.87;;
20399;SDS011;10359;53.596;22.520;2023-06-14T00:05:49;5.90;;;4.77;;
20399;SDS011;10359;53.596;22.520;2023-06-14T00:08:19;8.17;;;5.03;;
20399;SDS011;10359;53.596;22.520;2023-06-14T00:10:50;7.07;;;4.77;;
20399;SDS011;10359;53.596;22.520;2023-06-14T00:13:19;5.13;;;4.60;;
20399;SDS011;10359;53.596;22.520;2023-06-14T00:15:49;7.40;;;4.80;;
20399;SDS011;10359;53.596;22.520;2023-06-14T00:18:23;6.17;;;4.50;;
20399;SDS011;10359;53.596;22.520;2023-06-14T00:20:54;6.10;;;5.50;;
20399;SDS011;10359;53.596;22.520;2023-06-14T00:23:29;6.37;;;5.17;;
20399;SDS011;10359;53.596;22.520;2023-06-14T00:26:05;6.90;;;4.87;;
20399;SDS011;10359;53.596;22.520;2023-06-14T00:28:35;7.33;;;4.27;;
20399;SDS011;10359;53.596;22.520;2023-06-14T00:31:05;9.87;;;5.27;;
20399;SDS011;10359;53.596;22.520;2023-06-14T00:33:36;7.60;;;5.20;;
20399;SDS011;10359;53.596;22.520;2023-06-14T00:36:06;6.03;;;4.60;;
20399;SDS011;10359;53.596;22.520;2023-06-14T00:38:36;7.53;;;5.23;;
20399;SDS011;10359;53.596;22.520;2023-06-14T00:41:11;5.37;;;4.40;;
20399;SDS011;10359;53.596;22.520;2023-06-14T00:43:41;8.03;;;5.00;;
20399;SDS011;10359;53.596;22.520;2023-06-14T00:46:10;6.37;;;4.80;;
20399;SDS011;10359;53.596;22.520;2023-06-14T00:48:41;7.57;;;5.20;;
20399;SDS011;10359;53.596;22.520;2023-06-14T00:51:11;8.03;;;5.73;;
20399;SDS011;10359;53.596;22.520;2023-06-14T00:53:41;6.30;;;5.10;;
20399;SDS011;10359;53.596;22.520;2023-06-14T00:56:14;6.00;;;4.67;;
20399;SDS011;10359;53.596;22.520;2023-06-14T00:58:44;7.17;;;4.93;;
20399;SDS011;10359;53.596;22.520;2023-06-14T01:01:14;7.33;;;5.20;;
20399;SDS011;10359;53.596;22.520;2023-06-14T01:03:45;7.83;;;4.90;;
20399;SDS011;10359;53.596;22.520;2023-06-14T01:06:17;7.10;;;4.90;;
20399;SDS011;10359;53.596;22.520;2023-06-14T01:08:59;6.67;;;4.90;;
20399;SDS011;10359;53.596;22.520;2023-06-14T01:11:37;7.80;;;4.37;;
20399;SDS011;10359;53.596;22.520;2023-06-14T01:14:13;6.37;;;4.17;;
20399;SDS011;10359;53.596;22.520;2023-06-14T01:16:45;5.50;;;4.77;;
20399;SDS011;10359;53.596;22.520;2023-06-14T01:19:22;5.67;;;4.67;;
20399;SDS011;10359;53.596;22.520;2023-06-14T01:21:59;6.40;;;4.57;;
20399;SDS011;10359;53.596;22.520;2023-06-14T01:24:37;5.07;;;4.57;;
20399;SDS011;10359;53.596;22.520;2023-06-14T01:27:15;6.90;;;4.87;;
20399;SDS011;10359;53.596;22.520;2023-06-14T01:29:53;8.37;;;5.20;;
20399;SDS011;10359;53.596;22.520;2023-06-14T01:32:30;7.80;;;4.90;;
20399;SDS011;10359;53.596;22.520;2023-06-14T01:35:14;5.80;;;4.93;;
20399;SDS011;10359;53.596;22.520;2023-06-14T01:37:53;7.80;;;5.80;;
20399;SDS011;10359;53.596;22.520;2023-06-14T01:40:34;7.03;;;5.13;;
20399;SDS011;10359;53.596;22.520;2023-06-14T01:43:11;7.17;;;5.23;;
20399;SDS011;10359;53.596;22.520;2023-06-14T01:45:49;6.03;;;5.17;;
20399;SDS011;10359;53.596;22.520;2023-06-14T01:48:30;7.70;;;5.30;;
20399;SDS011;10359;53.596;22.520;2023-06-14T01:51:07;7.93;;;5.60;;
20399;SDS011;10359;53.596;22.520;2023-06-14T01:53:46;7.43;;;5.17;;
20399;SDS011;10359;53.596;22.520;2023-06-14T01:56:22;9.80;;;5.17;;
20399;SDS011;10359;53.596;22.520;2023-06-14T01:58:54;6.20;;;5.23;;
20399;SDS011;10359;53.596;22.520;2023-06-14T02:01:23;7.13;;;5.37;;
20399;SDS011;10359;53.596;22.520;2023-06-14T02:03:59;6.73;;;5.00;;
20399;SDS011;10359;53.596;22.520;2023-06-14T02:06:29;7.47;;;6.67;;
20399;SDS011;10359;53.596;22.520;2023-06-14T02:08:58;9.03;;;5.57;;
20399;SDS011;10359;53.596;22.520;2023-06-14T02:11:31;8.93;;;5.40;;
20399;SDS011;10359;53.596;22.520;2023-06-14T02:14:00;7.30;;;5.70;;
20399;SDS011;10359;53.596;22.520;2023-06-14T02:16:29;6.80;;;5.37;;
20399;SDS011;10359;53.596;22.520;2023-06-14T02:19:00;7.50;;;5.23;;
20399;SDS011;10359;53.596;22.520;2023-06-14T02:21:29;6.07;;;5.00;;
20399;SDS011;10359;53.596;22.520;2023-06-14T02:23:59;10.83;;;6.83;;
20399;SDS011;10359;53.596;22.520;2023-06-14T02:26:28;8.43;;;6.03;;
20399;SDS011;10359;53.596;22.520;2023-06-14T02:29:00;10.13;;;6.67;;
20399;SDS011;10359;53.596;22.520;2023-06-14T02:31:29;8.90;;;6.50;;
20399;SDS011;10359;53.596;22.520;2023-06-14T02:33:58;8.03;;;6.50;;
20399;SDS011;10359;53.596;22.520;2023-06-14T02:36:28;8.27;;;6.47;;
20399;SDS011;10359;53.596;22.520;2023-06-14T02:38:57;9.60;;;6.30;;
20399;SDS011;10359;53.596;22.520;2023-06-14T02:41:29;8.00;;;6.50;;
20399;SDS011;10359;53.596;22.520;2023-06-14T02:44:06;8.57;;;6.80;;
20399;SDS011;10359;53.596;22.520;2023-06-14T02:46:35;10.63;;;6.97;;
20399;SDS011;10359;53.596;22.520;2023-06-14T02:49:05;9.37;;;7.03;;
20399;SDS011;10359;53.596;22.520;2023-06-14T02:51:34;8.87;;;6.90;;
20399;SDS011;10359;53.596;22.520;2023-06-14T02:54:04;10.17;;;7.20;;
20399;SDS011;10359;53.596;22.520;2023-06-14T02:56:34;8.70;;;7.50;;
20399;SDS011;10359;53.596;22.520;2023-06-14T02:59:04;9.93;;;6.80;;
20399;SDS011;10359;53.596;22.520;2023-06-14T03:01:33;11.27;;;7.33;;
20399;SDS011;10359;53.596;22.520;2023-06-14T03:04:02;7.87;;;6.93;;
20399;SDS011;10359;53.596;22.520;2023-06-14T03:06:32;7.23;;;6.30;;
20399;SDS011;10359;53.596;22.520;2023-06-14T03:09:02;11.70;;;7.10;;
20399;SDS011;10359;53.596;22.520;2023-06-14T03:11:32;12.00;;;6.73;;
20399;SDS011;10359;53.596;22.520;2023-06-14T03:14:04;8.97;;;7.07;;
20399;SDS011;10359;53.596;22.520;2023-06-14T03:16:35;13.20;;;6.83;;
20399;SDS011;10359;53.596;22.520;2023-06-14T03:19:04;8.07;;;6.77;;
20399;SDS011;10359;53.596;22.520;2023-06-14T03:21:34;11.97;;;6.90;;
20399;SDS011;10359;53.596;22.520;2023-06-14T03:24:03;8.50;;;6.43;;
20399;SDS011;10359;53.596;22.520;2023-06-14T03:26:34;12.30;;;6.47;;
20399;SDS011;10359;53.596;22.520;2023-06-14T03:29:04;12.17;;;6.40;;
20399;SDS011;10359;53.596;22.520;2023-06-14T03:31:34;7.50;;;6.57;;
20399;SDS011;10359;53.596;22.520;2023-06-14T03:34:03;11.77;;;6.50;;
20399;SDS011;10359;53.596;22.520;2023-06-14T03:36:32;6.80;;;6.20;;
20399;SDS011;10359;53.596;22.520;2023-06-14T03:39:02;9.67;;;5.80;;
20399;SDS011;10359;53.596;22.520;2023-06-14T03:41:31;9.17;;;6.13;;
20399;SDS011;10359;53.596;22.520;2023-06-14T03:44:02;10.47;;;6.30;;
20399;SDS011;10359;53.596;22.520;2023-06-14T03:46:31;8.60;;;6.37;;
20399;SDS011;10359;53.596;22.520;2023-06-14T03:49:01;9.63;;;6.13;;
20399;SDS011;10359;53.596;22.520;2023-06-14T03:51:30;11.00;;;6.97;;
20399;SDS011;10359;53.596;22.520;2023-06-14T03:54:03;8.80;;;6.07;;
20399;SDS011;10359;53.596;22.520;2023-06-14T03:56:52;10.53;;;5.90;;
20399;SDS011;10359;53.596;22.520;2023-06-14T03:59:23;6.83;;;5.50;;
20399;SDS011;10359;53.596;22.520;2023-06-14T04:01:53;11.17;;;6.70;;
20399;SDS011;10359;53.596;22.520;2023-06-14T04:04:23;8.97;;;5.30;;
20399;SDS011;10359;53.596;22.520;2023-06-14T04:06:56;9.70;;;5.60;;
20399;SDS011;10359;53.596;22.520;2023-06-14T04:09:27;10.37;;;5.97;;
20399;SDS011;10359;53.596;22.520;2023-06-14T04:11:57;8.50;;;5.67;;
20399;SDS011;10359;53.596;22.520;2023-06-14T04:14:28;7.23;;;5.60;;
20399;SDS011;10359;53.596;22.520;2023-06-14T04:17:00;7.43;;;5.53;;
20399;SDS011;10359;53.596;22.520;2023-06-14T04:19:30;6.83;;;5.30;;
20399;SDS011;10359;53.596;22.520;2023-06-14T04:22:00;12.17;;;5.50;;
20399;SDS011;10359;53.596;22.520;2023-06-14T04:24:29;10.63;;;5.37;;
20399;SDS011;10359;53.596;22.520;2023-06-14T04:27:02;7.77;;;5.40;;
20399;SDS011;10359;53.596;22.520;2023-06-14T04:29:33;8.13;;;5.07;;
20399;SDS011;10359;53.596;22.520;2023-06-14T04:32:03;6.87;;;5.00;;
20399;SDS011;10359;53.596;22.520;2023-06-14T04:34:34;9.00;;;5.73;;
20399;SDS011;10359;53.596;22.520;2023-06-14T04:37:04;9.87;;;5.37;;
20399;SDS011;10359;53.596;22.520;2023-06-14T04:39:35;9.13;;;5.43;;
20399;SDS011;10359;53.596;22.520;2023-06-14T04:42:04;7.93;;;5.40;;
20399;SDS011;10359;53.596;22.520;2023-06-14T04:44:36;8.90;;;5.10;;
20399;SDS011;10359;53.596;22.520;2023-06-14T04:47:06;6.13;;;4.93;;
20399;SDS011;10359;53.596;22.520;2023-06-14T04:49:36;7.10;;;4.90;;
20399;SDS011;10359;53.596;22.520;2023-06-14T04:52:06;7.33;;;5.10;;
20399;SDS011;10359;53.596;22.520;2023-06-14T04:54:36;6.87;;;4.63;;
20399;SDS011;10359;53.596;22.520;2023-06-14T04:57:09;7.57;;;4.67;;
20399;SDS011;10359;53.596;22.520;2023-06-14T05:06:30;7.17;;;5.07;;
20399;SDS011;10359;53.596;22.520;2023-06-14T05:08:59;7.40;;;4.97;;
20399;SDS011;10359;53.596;22.520;2023-06-14T05:11:29;7.80;;;4.87;;
20399;SDS011;10359;53.596;22.520;2023-06-14T05:13:58;11.03;;;4.60;;
20399;SDS011;10359;53.596;22.520;2023-06-14T05:28:30;7.23;;;5.17;;
20399;SDS011;10359;53.596;22.520;2023-06-14T05:31:00;7.27;;;4.80;;
20399;SDS011;10359;53.596;22.520;2023-06-14T05:33:29;9.23;;;5.10;;
20399;SDS011;10359;53.596;22.520;2023-06-14T05:35:58;9.70;;;4.90;;
20399;SDS011;10359;53.596;22.520;2023-06-14T05:38:28;8.27;;;5.43;;
20399;SDS011;10359;53.596;22.520;2023-06-14T05:40:57;6.20;;;4.80;;
20399;SDS011;10359;53.596;22.520;2023-06-14T05:43:26;6.70;;;4.83;;
20399;SDS011;10359;53.596;22.520;2023-06-14T05:45:57;7.20;;;4.93;;
20399;SDS011;10359;53.596;22.520;2023-06-14T05:48:26;6.60;;;5.40;;
20399;SDS011;10359;53.596;22.520;2023-06-14T05:50:58;6.73;;;5.60;;
20399;SDS011;10359;53.596;22.520;2023-06-14T05:53:28;9.00;;;4.77;;
20399;SDS011;10359;53.596;22.520;2023-06-14T05:55:57;6.07;;;4.83;;
20399;SDS011;10359;53.596;22.520;2023-06-14T05:58:26;12.23;;;4.53;;
20399;SDS011;10359;53.596;22.520;2023-06-14T06:00:57;6.23;;;4.20;;
20399;SDS011;10359;53.596;22.520;2023-06-14T06:03:27;11.20;;;5.00;;
20399;SDS011;10359;53.596;22.520;2023-06-14T06:05:57;8.30;;;4.57;;
20399;SDS011;10359;53.596;22.520;2023-06-14T06:08:26;7.53;;;4.77;;
20399;SDS011;10359;53.596;22.520;2023-06-14T06:10:55;7.70;;;5.67;;
20399;SDS011;10359;53.596;22.520;2023-06-14T06:13:25;6.70;;;4.40;;
20399;SDS011;10359;53.596;22.520;2023-06-14T06:15:54;7.37;;;4.80;;
20399;SDS011;10359;53.596;22.520;2023-06-14T06:18:25;6.03;;;3.90;;
20399;SDS011;10359;53.596;22.520;2023-06-14T06:20:55;6.10;;;4.40;;
20399;SDS011;10359;53.596;22.520;2023-06-14T06:23:24;6.60;;;4.27;;
20399;SDS011;10359;53.596;22.520;2023-06-14T06:25:54;8.33;;;4.40;;
20399;SDS011;10359;53.596;22.520;2023-06-14T06:28:23;5.87;;;4.57;;
20399;SDS011;10359;53.596;22.520;2023-06-14T06:30:53;7.43;;;5.07;;
20399;SDS011;10359;53.596;22.520;2023-06-14T06:33:24;9.43;;;4.80;;
20399;SDS011;10359;53.596;22.520;2023-06-14T06:35:53;6.17;;;4.20;;
20399;SDS011;10359;53.596;22.520;2023-06-14T06:38:23;5.43;;;4.17;;
20399;SDS011;10359;53.596;22.520;2023-06-14T06:40:52;4.73;;;4.17;;
20399;SDS011;10359;53.596;22.520;2023-06-14T06:43:23;6.90;;;4.57;;
20399;SDS011;10359;53.596;22.520;2023-06-14T06:45:52;5.70;;;4.13;;
20399;SDS011;10359;53.596;22.520;2023-06-14T06:48:23;6.87;;;4.57;;
20399;SDS011;10359;53.596;22.520;2023-06-14T06:50:53;5.57;;;4.13;;
20399;SDS011;10359;53.596;22.520;2023-06-14T06:53:22;5.20;;;3.97;;
20399;SDS011;10359;53.596;22.520;2023-06-14T06:56:05;7.63;;;4.53;;
20399;SDS011;10359;53.596;22.520;2023-06-14T06:58:35;5.83;;;4.30;;
20399;SDS011;10359;53.596;22.520;2023-06-14T07:01:04;5.83;;;4.50;;
20399;SDS011;10359;53.596;22.520;2023-06-14T07:03:35;4.60;;;4.20;;
20399;SDS011;10359;53.596;22.520;2023-06-14T07:06:05;7.50;;;4.37;;
20399;SDS011;10359;53.596;22.520;2023-06-14T07:08:34;6.60;;;4.57;;
20399;SDS011;10359;53.596;22.520;2023-06-14T07:11:06;7.97;;;6.77;;
20399;SDS011;10359;53.596;22.520;2023-06-14T07:13:35;5.87;;;4.63;;
20399;SDS011;10359;53.596;22.520;2023-06-14T07:16:04;6.47;;;5.40;;
20399;SDS011;10359;53.596;22.520;2023-06-14T07:18:34;6.90;;;5.07;;
20399;SDS011;10359;53.596;22.520;2023-06-14T07:21:05;7.70;;;4.57;;
20399;SDS011;10359;53.596;22.520;2023-06-14T07:23:34;12.10;;;5.30;;
20399;SDS011;10359;53.596;22.520;2023-06-14T07:26:04;9.53;;;5.03;;
20399;SDS011;10359;53.596;22.520;2023-06-14T07:28:33;8.13;;;4.60;;
20399;SDS011;10359;53.596;22.520;2023-06-14T07:31:06;8.67;;;4.87;;
20399;SDS011;10359;53.596;22.520;2023-06-14T07:33:37;6.10;;;4.00;;
20399;SDS011;10359;53.596;22.520;2023-06-14T07:36:06;6.13;;;4.33;;
20399;SDS011;10359;53.596;22.520;2023-06-14T07:38:36;8.03;;;5.20;;
20399;SDS011;10359;53.596;22.520;2023-06-14T07:41:07;12.33;;;6.27;;
20399;SDS011;10359;53.596;22.520;2023-06-14T07:43:36;10.60;;;5.90;;
20399;SDS011;10359;53.596;22.520;2023-06-14T07:46:06;7.97;;;4.73;;
20399;SDS011;10359;53.596;22.520;2023-06-14T07:48:37;6.97;;;3.47;;
20399;SDS011;10359;53.596;22.520;2023-06-14T07:51:07;7.83;;;4.20;;
20399;SDS011;10359;53.596;22.520;2023-06-14T07:53:36;8.47;;;3.43;;
20399;SDS011;10359;53.596;22.520;2023-06-14T07:56:08;6.83;;;3.53;;
20399;SDS011;10359;53.596;22.520;2023-06-14T07:58:37;4.63;;;3.10;;
20399;SDS011;10359;53.596;22.520;2023-06-14T08:01:08;8.70;;;3.67;;
20399;SDS011;10359;53.596;22.520;2023-06-14T08:03:40;7.53;;;3.13;;
20399;SDS011;10359;53.596;22.520;2023-06-14T08:06:09;7.50;;;3.13;;
20399;SDS011;10359;53.596;22.520;2023-06-14T08:08:39;7.67;;;3.23;;
20399;SDS011;10359;53.596;22.520;2023-06-14T08:11:08;4.93;;;3.00;;
20399;SDS011;10359;53.596;22.520;2023-06-14T08:13:37;5.57;;;2.63;;
20399;SDS011;10359;53.596;22.520;2023-06-14T08:16:07;3.80;;;3.00;;
20399;SDS011;10359;53.596;22.520;2023-06-14T08:18:36;7.60;;;3.40;;
20399;SDS011;10359;53.596;22.520;2023-06-14T08:21:07;4.77;;;3.57;;
20399;SDS011;10359;53.596;22.520;2023-06-14T08:23:36;4.93;;;3.27;;
20399;SDS011;10359;53.596;22.520;2023-06-14T08:26:05;3.47;;;2.83;;
20399;SDS011;10359;53.596;22.520;2023-06-14T08:28:35;3.33;;;3.03;;
20399;SDS011;10359;53.596;22.520;2023-06-14T08:31:04;4.40;;;3.00;;
20399;SDS011;10359;53.596;22.520;2023-06-14T08:33:33;4.27;;;3.03;;
20399;SDS011;10359;53.596;22.520;2023-06-14T08:36:03;3.60;;;3.10;;
20399;SDS011;10359;53.596;22.520;2023-06-14T08:38:34;4.13;;;3.50;;
20399;SDS011;10359;53.596;22.520;2023-06-14T08:41:05;5.20;;;3.53;;
20399;SDS011;10359;53.596;22.520;2023-06-14T08:43:34;8.53;;;4.03;;
20399;SDS011;10359;53.596;22.520;2023-06-14T08:46:04;5.50;;;3.60;;
20399;SDS011;10359;53.596;22.520;2023-06-14T08:48:39;6.13;;;3.80;;
20399;SDS011;10359;53.596;22.520;2023-06-14T08:51:09;4.23;;;3.50;;
20399;SDS011;10359;53.596;22.520;2023-06-14T08:53:41;6.90;;;3.17;;
20399;SDS011;10359;53.596;22.520;2023-06-14T08:56:12;4.70;;;3.60;;
20399;SDS011;10359;53.596;22.520;2023-06-14T08:58:42;4.33;;;2.93;;
20399;SDS011;10359;53.596;22.520;2023-06-14T09:01:13;3.23;;;2.90;;
20399;SDS011;10359;53.596;22.520;2023-06-14T09:03:44;3.40;;;3.10;;
20399;SDS011;10359;53.596;22.520;2023-06-14T09:06:15;4.03;;;2.70;;
20399;SDS011;10359;53.596;22.520;2023-06-14T09:08:47;3.73;;;2.63;;
20399;SDS011;10359;53.596;22.520;2023-06-14T09:11:18;6.43;;;2.60;;
20399;SDS011;10359;53.596;22.520;2023-06-14T09:13:48;5.10;;;2.97;;
20399;SDS011;10359;53.596;22.520;2023-06-14T09:16:18;6.60;;;3.03;;
20399;SDS011;10359;53.596;22.520;2023-06-14T09:18:47;5.20;;;3.10;;
20399;SDS011;10359;53.596;22.520;2023-06-14T09:21:17;4.00;;;3.13;;
20399;SDS011;10359;53.596;22.520;2023-06-14T09:23:49;3.73;;;3.03;;
20399;SDS011;10359;53.596;22.520;2023-06-14T09:26:19;4.53;;;2.87;;
20399;SDS011;10359;53.596;22.520;2023-06-14T09:28:50;3.23;;;2.93;;
20399;SDS011;10359;53.596;22.520;2023-06-14T09:31:22;4.77;;;2.97;;
20399;SDS011;10359;53.596;22.520;2023-06-14T09:33:51;3.80;;;2.90;;
20399;SDS011;10359;53.596;22.520;2023-06-14T09:36:24;3.33;;;3.03;;
20399;SDS011;10359;53.596;22.520;2023-06-14T09:38:56;4.13;;;2.80;;
20399;SDS011;10359;53.596;22.520;2023-06-14T09:41:30;4.10;;;2.80;;
20399;SDS011;10359;53.596;22.520;2023-06-14T09:44:00;4.40;;;3.10;;
20399;SDS011;10359;53.596;22.520;2023-06-14T09:46:35;4.20;;;3.43;;
20399;SDS011;10359;53.596;22.520;2023-06-14T09:49:05;5.00;;;2.90;;
20399;SDS011;10359;53.596;22.520;2023-06-14T09:51:36;5.10;;;3.17;;
20399;SDS011;10359;53.596;22.520;2023-06-14T09:54:14;3.00;;;2.70;;
20399;SDS011;10359;53.596;22.520;2023-06-14T09:56:49;5.20;;;3.20;;
20399;SDS011;10359;53.596;22.520;2023-06-14T09:59:21;3.67;;;2.90;;
20399;SDS011;10359;53.596;22.520;2023-06-14T10:01:57;2.90;;;2.60;;
20399;SDS011;10359;53.596;22.520;2023-06-14T10:04:30;3.83;;;2.90;;
20399;SDS011;10359;53.596;22.520;2023-06-14T10:07:03;3.03;;;2.70;;
20399;SDS011;10359;53.596;22.520;2023-06-14T10:09:35;5.70;;;3.17;;
20399;SDS011;10359;53.596;22.520;2023-06-14T10:12:06;2.43;;;2.17;;
20399;SDS011;10359;53.596;22.520;2023-06-14T10:14:37;2.63;;;2.40;;
20399;SDS011;10359;53.596;22.520;2023-06-14T10:17:07;4.80;;;2.87;;
20399;SDS011;10359;53.596;22.520;2023-06-14T10:19:41;5.77;;;2.60;;
20399;SDS011;10359;53.596;22.520;2023-06-14T10:22:22;2.77;;;2.20;;
20399;SDS011;10359;53.596;22.520;2023-06-14T10:25:01;4.07;;;2.50;;
20399;SDS011;10359;53.596;22.520;2023-06-14T10:27:39;4.77;;;2.40;;
20399;SDS011;10359;53.596;22.520;2023-06-14T10:30:14;4.13;;;2.37;;
20399;SDS011;10359;53.596;22.520;2023-06-14T10:33:03;2.57;;;2.37;;
20399;SDS011;10359;53.596;22.520;2023-06-14T10:35:34;2.00;;;1.90;;
20399;SDS011;10359;53.596;22.520;2023-06-14T10:38:06;3.43;;;2.43;;
20399;SDS011;10359;53.596;22.520;2023-06-14T10:40:38;4.97;;;2.77;;
20399;SDS011;10359;53.596;22.520;2023-06-14T10:43:20;2.60;;;2.40;;
20399;SDS011;10359;53.596;22.520;2023-06-14T10:48:45;5.03;;;3.17;;
20399;SDS011;10359;53.596;22.520;2023-06-14T10:51:18;4.67;;;2.43;;
20399;SDS011;10359;53.596;22.520;2023-06-14T10:53:48;3.77;;;2.30;;
20399;SDS011;10359;53.596;22.520;2023-06-14T10:56:29;4.13;;;2.53;;
20399;SDS011;10359;53.596;22.520;2023-06-14T10:58:59;2.70;;;2.10;;
20399;SDS011;10359;53.596;22.520;2023-06-14T11:01:35;3.33;;;2.10;;
20399;SDS011;10359;53.596;22.520;2023-06-14T11:04:08;3.13;;;2.40;;
20399;SDS011;10359;53.596;22.520;2023-06-14T11:06:45;2.63;;;2.30;;
20399;SDS011;10359;53.596;22.520;2023-06-14T11:09:38;3.47;;;2.10;;
20399;SDS011;10359;53.596;22.520;2023-06-14T11:12:23;5.97;;;2.70;;
20399;SDS011;10359;53.596;22.520;2023-06-14T11:14:56;3.67;;;2.43;;
20399;SDS011;10359;53.596;22.520;2023-06-14T11:17:26;2.70;;;2.13;;
20399;SDS011;10359;53.596;22.520;2023-06-14T11:20:09;3.50;;;2.43;;
20399;SDS011;10359;53.596;22.520;2023-06-14T11:22:48;5.43;;;2.63;;
20399;SDS011;10359;53.596;22.520;2023-06-14T11:25:18;3.00;;;2.70;;
20399;SDS011;10359;53.596;22.520;2023-06-14T11:27:50;3.90;;;2.90;;
20399;SDS011;10359;53.596;22.520;2023-06-14T11:30:19;5.10;;;2.90;;
20399;SDS011;10359;53.596;22.520;2023-06-14T11:32:49;6.78;;;2.72;;
20399;SDS011;10359;53.596;22.520;2023-06-14T11:35:24;3.28;;;2.78;;
20399;SDS011;10359;53.596;22.520;2023-06-14T11:37:54;6.45;;;2.50;;
20399;SDS011;10359;53.596;22.520;2023-06-14T11:40:24;5.00;;;2.80;;
20399;SDS011;10359;53.596;22.520;2023-06-14T11:42:59;6.18;;;2.70;;
20399;SDS011;10359;53.596;22.520;2023-06-14T11:45:30;3.63;;;3.13;;
20399;SDS011;10359;53.596;22.520;2023-06-14T11:47:59;2.97;;;2.70;;
20399;SDS011;10359;53.596;22.520;2023-06-14T11:50:29;3.33;;;2.80;;
20399;SDS011;10359;53.596;22.520;2023-06-14T11:52:58;3.38;;;2.83;;
20399;SDS011;10359;53.596;22.520;2023-06-14T11:55:35;3.60;;;2.77;;
20399;SDS011;10359;53.596;22.520;2023-06-14T11:58:07;5.03;;;2.97;;
20399;SDS011;10359;53.596;22.520;2023-06-14T12:00:38;3.55;;;3.20;;
20399;SDS011;10359;53.596;22.520;2023-06-14T12:03:09;4.38;;;2.95;;
20399;SDS011;10359;53.596;22.520;2023-06-14T12:05:39;3.13;;;2.83;;
20399;SDS011;10359;53.596;22.520;2023-06-14T12:08:09;3.57;;;2.90;;
20399;SDS011;10359;53.596;22.520;2023-06-14T12:10:43;4.67;;;3.10;;
20399;SDS011;10359;53.596;22.520;2023-06-14T12:13:16;3.40;;;3.10;;
20399;SDS011;10359;53.596;22.520;2023-06-14T12:15:53;5.97;;;3.53;;
20399;SDS011;10359;53.596;22.520;2023-06-14T12:18:31;3.97;;;3.30;;
20399;SDS011;10359;53.596;22.520;2023-06-14T12:21:03;6.00;;;3.03;;
20399;SDS011;10359;53.596;22.520;2023-06-14T12:23:41;5.15;;;3.38;;
20399;SDS011;10359;53.596;22.520;2023-06-14T12:26:13;4.72;;;3.50;;
20399;SDS011;10359;53.596;22.520;2023-06-14T12:28:45;7.25;;;3.13;;
20399;SDS011;10359;53.596;22.520;2023-06-14T12:31:15;3.80;;;3.40;;
20399;SDS011;10359;53.596;22.520;2023-06-14T12:33:46;3.85;;;3.40;;
20399;SDS011;10359;53.596;22.520;2023-06-14T12:36:16;5.10;;;3.43;;
20399;SDS011;10359;53.596;22.520;2023-06-14T12:38:46;4.18;;;3.70;;
20399;SDS011;10359;53.596;22.520;2023-06-14T12:41:16;4.25;;;3.47;;
20399;SDS011;10359;53.596;22.520;2023-06-14T12:43:47;7.23;;;3.73;;
20399;SDS011;10359;53.596;22.520;2023-06-14T12:46:17;3.80;;;3.40;;
20399;SDS011;10359;53.596;22.520;2023-06-14T12:48:46;4.90;;;3.67;;
20399;SDS011;10359;53.596;22.520;2023-06-14T12:51:16;6.13;;;3.75;;
20399;SDS011;10359;53.596;22.520;2023-06-14T12:53:45;5.22;;;3.83;;
20399;SDS011;10359;53.596;22.520;2023-06-14T12:56:15;6.03;;;3.72;;
20399;SDS011;10359;53.596;22.520;2023-06-14T12:58:48;5.10;;;3.72;;
20399;SDS011;10359;53.596;22.520;2023-06-14T13:01:18;5.60;;;3.72;;
20399;SDS011;10359;53.596;22.520;2023-06-14T13:03:47;7.28;;;3.92;;
20399;SDS011;10359;53.596;22.520;2023-06-14T13:06:20;5.65;;;4.28;;
20399;SDS011;10359;53.596;22.520;2023-06-14T13:08:51;8.73;;;4.57;;
20399;SDS011;10359;53.596;22.520;2023-06-14T13:11:24;4.85;;;3.85;;
20399;SDS011;10359;53.596;22.520;2023-06-14T13:13:55;4.15;;;3.83;;
20399;SDS011;10359;53.596;22.520;2023-06-14T13:16:26;5.80;;;3.78;;
20399;SDS011;10359;53.596;22.520;2023-06-14T13:18:56;6.03;;;4.05;;
20399;SDS011;10359;53.596;22.520;2023-06-14T13:21:25;3.92;;;3.63;;
20399;SDS011;10359;53.596;22.520;2023-06-14T13:23:55;4.95;;;3.80;;
20399;SDS011;10359;53.596;22.520;2023-06-14T13:26:24;6.55;;;3.85;;
20399;SDS011;10359;53.596;22.520;2023-06-14T13:28:55;4.07;;;3.67;;
20399;SDS011;10359;53.596;22.520;2023-06-14T13:31:24;6.35;;;3.72;;
20399;SDS011;10359;53.596;22.520;2023-06-14T13:33:54;5.15;;;3.72;;
20399;SDS011;10359;53.596;22.520;2023-06-14T13:36:24;4.03;;;3.58;;
20399;SDS011;10359;53.596;22.520;2023-06-14T13:38:59;7.85;;;3.50;;
20399;SDS011;10359;53.596;22.520;2023-06-14T13:41:29;6.18;;;3.90;;
20399;SDS011;10359;53.596;22.520;2023-06-14T13:44:02;5.72;;;3.70;;
20399;SDS011;10359;53.596;22.520;2023-06-14T13:46:32;6.35;;;4.00;;
20399;SDS011;10359;53.596;22.520;2023-06-14T13:49:02;5.43;;;3.55;;
20399;SDS011;10359;53.596;22.520;2023-06-14T13:51:32;4.20;;;3.80;;
20399;SDS011;10359;53.596;22.520;2023-06-14T13:54:02;4.85;;;3.15;;
20399;SDS011;10359;53.596;22.520;2023-06-14T13:56:31;4.80;;;3.38;;
20399;SDS011;10359;53.596;22.520;2023-06-14T13:59:02;5.63;;;3.60;;
20399;SDS011;10359;53.596;22.520;2023-06-14T14:01:31;6.87;;;3.43;;
20399;SDS011;10359;53.596;22.520;2023-06-14T14:04:01;6.27;;;3.50;;
20399;SDS011;10359;53.596;22.520;2023-06-14T14:06:32;3.67;;;3.37;;
20399;SDS011;10359;53.596;22.520;2023-06-14T14:09:02;7.70;;;3.60;;
20399;SDS011;10359;53.596;22.520;2023-06-14T14:11:32;5.47;;;3.47;;
20399;SDS011;10359;53.596;22.520;2023-06-14T14:14:03;7.00;;;3.37;;
20399;SDS011;10359;53.596;22.520;2023-06-14T14:16:33;5.77;;;3.20;;
20399;SDS011;10359;53.596;22.520;2023-06-14T14:19:04;6.80;;;3.30;;
20399;SDS011;10359;53.596;22.520;2023-06-14T14:21:34;5.63;;;2.97;;
20399;SDS011;10359;53.596;22.520;2023-06-14T14:24:04;3.20;;;2.90;;
20399;SDS011;10359;53.596;22.520;2023-06-14T14:26:33;5.40;;;3.03;;
20399;SDS011;10359;53.596;22.520;2023-06-14T14:29:04;5.57;;;2.73;;
20399;SDS011;10359;53.596;22.520;2023-06-14T14:31:34;4.60;;;2.97;;
20399;SDS011;10359;53.596;22.520;2023-06-14T14:34:03;3.60;;;2.83;;
20399;SDS011;10359;53.596;22.520;2023-06-14T14:36:33;3.40;;;2.87;;
20399;SDS011;10359;53.596;22.520;2023-06-14T14:39:04;4.57;;;3.17;;
20399;SDS011;10359;53.596;22.520;2023-06-14T14:41:34;2.93;;;2.50;;
20399;SDS011;10359;53.596;22.520;2023-06-14T14:44:09;4.07;;;2.77;;
20399;SDS011;10359;53.596;22.520;2023-06-14T14:46:38;5.77;;;2.80;;
20399;SDS011;10359;53.596;22.520;2023-06-14T14:49:08;5.10;;;3.30;;
20399;SDS011;10359;53.596;22.520;2023-06-14T14:51:38;5.97;;;2.90;;
20399;SDS011;10359;53.596;22.520;2023-06-14T14:54:07;6.43;;;2.93;;
20399;SDS011;10359;53.596;22.520;2023-06-14T14:56:36;4.63;;;2.97;;
20399;SDS011;10359;53.596;22.520;2023-06-14T14:59:06;3.67;;;2.87;;
20399;SDS011;10359;53.596;22.520;2023-06-14T15:01:37;4.67;;;2.90;;
20399;SDS011;10359;53.596;22.520;2023-06-14T15:04:07;7.10;;;3.17;;
20399;SDS011;10359;53.596;22.520;2023-06-14T15:06:37;4.40;;;2.67;;
20399;SDS011;10359;53.596;22.520;2023-06-14T15:09:07;4.47;;;3.00;;
20399;SDS011;10359;53.596;22.520;2023-06-14T15:11:37;4.73;;;2.83;;
20399;SDS011;10359;53.596;22.520;2023-06-14T15:14:06;3.93;;;3.00;;
20399;SDS011;10359;53.596;22.520;2023-06-14T15:16:37;4.70;;;2.80;;
20399;SDS011;10359;53.596;22.520;2023-06-14T15:19:07;5.77;;;3.20;;